Time;durP1;ratioP1;P1;durP2;ratioP2;P2;SDS_P1;SDS_P2;PMS_P1;PMS_P2;Temp;Humidity;BMP_temperature;BMP_pressure;BME280_temperature;BME280_humidity;BME280_pressure;Samples;Min_cycle;Max_cycle;Signal;HPM_P1;HPM_P2
2023/04/03 00:01:11;;;;;;;;;;;;;;;5.41;nan;100691.59;4840457;29;19916;-89
2023/04/03 00:03:55;;;;;;;;;;;;;;;5.35;nan;100687.69;4843539;29;19923;-89
2023/04/03 00:06:39;;;;;;;;;;;;;;;5.36;nan;100688.53;4843948;29;19924;-89
2023/04/03 00:09:24;;;;;;;;;;;;;;;5.32;nan;100692.34;4843313;29;19928;-89
2023/04/03 00:12:11;;;;;;;;;;;;;;;5.29;nan;100691.59;4842546;29;19927;-89
2023/04/03 00:14:55;;;;;;;;;;;;;;;5.28;nan;100692.53;4843806;29;19924;-88
2023/04/03 00:17:39;;;;;;;;;;;;;;;5.21;nan;100678.34;4844499;29;20412;-89
2023/04/03 00:20:23;;;;;;;;;;;;;;;5.15;nan;100681.44;4843665;29;19980;-89
2023/04/03 00:23:07;;;;;;;;;;;;;;;5.06;nan;100679.53;4841156;29;19969;-90
2023/04/03 00:25:52;;;;;;;;;;;;;;;5.04;nan;100679.66;4841337;29;20346;-88
2023/04/03 00:28:36;;;;;;;;;;;;;;;5.04;nan;100684.03;4843218;29;20431;-89
2023/04/03 00:31:20;;;;;;;;;;;;;;;5.01;nan;100692.88;4843929;29;19936;-88
2023/04/03 00:34:07;;;;;;;;;;;;;;;4.98;nan;100680.97;4843774;29;19923;-89
2023/04/03 00:36:51;;;;;;;;;;;;;;;4.89;nan;100686.84;4841897;29;20436;-89
2023/04/03 00:39:35;;;;;;;;;;;;;;;4.86;nan;100681.88;4845624;29;19978;-89
2023/04/03 00:42:19;;;;;;;;;;;;;;;4.81;nan;100681.41;4843788;29;19981;-89
2023/04/03 00:52:27;;;;;;;;;;;;;;;4.70;nan;100683.03;4847209;29;20531;-89
2023/04/03 00:55:14;;;;;;;;;;;;;;;4.67;nan;100685.06;4854715;29;20287;-89
2023/04/03 00:58:00;;;;;;;;;;;;;;;4.64;nan;100683.50;4865722;29;19927;-88
2023/04/03 01:00:46;;;;;;;;;;;;;;;4.65;nan;100687.75;4866134;29;20282;-88
2023/04/03 01:03:31;;;;;;;;;;;;;;;4.60;nan;100689.88;4865825;29;19966;-88
2023/04/03 01:06:16;;;;;;;;;;;;;;;4.56;nan;100680.66;4861774;29;19964;-88
2023/04/03 01:09:01;;;;;;;;;;;;;;;4.52;nan;100684.41;4868601;29;19922;-89
2023/04/03 01:11:45;;;;;;;;;;;;;;;4.47;nan;100692.56;4866284;29;20403;-89
2023/04/03 01:14:29;;;;;;;;;;;;;;;4.47;nan;100686.53;4868465;29;19968;-89
2023/04/03 01:17:28;;;;;;;;;;;;;;;4.45;nan;100684.06;4864739;29;19971;-88
2023/04/03 01:20:19;;;;;;;;;;;;;;;4.43;nan;100678.97;4862532;29;19923;-89
2023/04/03 01:23:05;;;;;;;;;;;;;;;4.40;nan;100675.75;4861108;29;19964;-89
2023/04/03 01:25:51;;;;;;;;;;;;;;;4.34;nan;100677.06;4854327;29;19923;-88
2023/04/03 01:28:38;;;;;;;;;;;;;;;4.35;nan;100678.72;4860408;29;20015;-88
2023/04/03 01:31:25;;;;;;;;;;;;;;;4.36;nan;100677.78;4860817;29;20415;-88
2023/04/03 01:34:09;;;;;;;;;;;;;;;4.38;nan;100678.47;4857156;29;19923;-88
2023/04/03 01:36:53;;;;;;;;;;;;;;;4.31;nan;100677.25;4871455;29;19971;-89
2023/04/03 01:39:37;;;;;;;;;;;;;;;4.28;nan;100669.69;4859853;29;19922;-89
2023/04/03 01:42:21;;;;;;;;;;;;;;;4.25;nan;100675.13;4854082;29;19923;-88
2023/04/03 01:45:05;;;;;;;;;;;;;;;4.22;nan;100662.34;4857919;29;20025;-88
2023/04/03 01:47:49;;;;;;;;;;;;;;;4.21;nan;100666.72;4855687;29;19923;-90
2023/04/03 01:50:33;;;;;;;;;;;;;;;4.19;nan;100657.38;4865065;29;19975;-89
2023/04/03 01:53:17;;;;;;;;;;;;;;;4.20;nan;100666.84;4849333;29;19922;-89
2023/04/03 01:56:01;;;;;;;;;;;;;;;4.15;nan;100667.16;4854636;29;19963;-89
2023/04/03 01:58:45;;;;;;;;;;;;;;;4.14;nan;100668.94;4873034;29;19966;-89
2023/04/03 02:01:29;;;;;;;;;;;;;;;4.14;nan;100671.56;4864356;29;19923;-89
2023/04/03 02:04:13;;;;;;;;;;;;;;;4.13;nan;100669.06;4858488;29;19978;-88
2023/04/03 02:06:56;;;;;;;;;;;;;;;4.09;nan;100671.03;4868798;29;19923;-89
2023/04/03 02:09:40;;;;;;;;;;;;;;;4.08;nan;100669.38;4863095;29;19975;-89
2023/04/03 02:12:24;;;;;;;;;;;;;;;4.05;nan;100664.41;4851294;29;19978;-88
2023/04/03 02:15:08;;;;;;;;;;;;;;;4.04;nan;100662.75;4859385;29;19988;-89
2023/04/03 02:17:53;;;;;;;;;;;;;;;4.04;nan;100657.56;4862455;29;20060;-89
2023/04/03 02:20:37;;;;;;;;;;;;;;;4.06;nan;100657.47;4861207;29;20324;-87
2023/04/03 02:23:21;;;;;;;;;;;;;;;4.02;nan;100662.03;4856220;29;19930;-89
2023/04/03 02:26:12;;;;;;;;;;;;;;;4.03;nan;100661.09;4856910;29;19931;-89
2023/04/03 02:28:55;;;;;;;;;;;;;;;4.02;nan;100664.63;4868387;29;19973;-89
2023/04/03 02:31:40;;;;;;;;;;;;;;;4.05;nan;100661.00;4856047;29;20006;-88
2023/04/03 02:34:24;;;;;;;;;;;;;;;4.02;nan;100659.44;4870479;29;20055;-89
2023/04/03 02:37:08;;;;;;;;;;;;;;;4.01;nan;100660.38;4850777;29;19926;-88
2023/04/03 02:39:52;;;;;;;;;;;;;;;4.00;nan;100651.75;4854483;29;19968;-89
2023/04/03 02:42:36;;;;;;;;;;;;;;;3.97;nan;100658.97;4858277;29;19945;-89
2023/04/03 02:45:20;;;;;;;;;;;;;;;3.94;nan;100652.19;4856148;29;19994;-88
2023/04/03 02:48:04;;;;;;;;;;;;;;;3.91;nan;100654.19;4856124;29;19923;-88
2023/04/03 02:50:48;;;;;;;;;;;;;;;3.88;nan;100654.41;4857692;29;19956;-88
2023/04/03 02:53:32;;;;;;;;;;;;;;;3.84;nan;100656.41;4857249;29;19923;-88
2023/04/03 02:56:17;;;;;;;;;;;;;;;3.83;nan;100658.16;4856604;29;20007;-91
2023/04/03 02:59:00;;;;;;;;;;;;;;;3.82;nan;100656.53;4860932;29;20007;-90
2023/04/03 03:01:44;;;;;;;;;;;;;;;3.80;nan;100653.22;4867499;29;19970;-91
2023/04/03 03:04:28;;;;;;;;;;;;;;;3.77;nan;100650.84;4857582;29;19943;-90
2023/04/03 03:07:13;;;;;;;;;;;;;;;3.76;nan;100656.97;4864695;29;19923;-88
2023/04/03 03:09:57;;;;;;;;;;;;;;;3.74;nan;100653.66;4852523;29;19927;-90
2023/04/03 03:12:41;;;;;;;;;;;;;;;3.73;nan;100657.16;4872776;29;19923;-90
2023/04/03 03:15:25;;;;;;;;;;;;;;;3.72;nan;100658.09;4876122;29;19923;-90
2023/04/03 03:18:09;;;;;;;;;;;;;;;3.68;nan;100648.88;4854889;29;20062;-89
2023/04/03 03:20:53;;;;;;;;;;;;;;;3.68;nan;100654.91;4858080;29;19923;-90
2023/04/03 03:23:38;;;;;;;;;;;;;;;3.70;nan;100647.84;4859304;29;19968;-90
2023/04/03 03:26:21;;;;;;;;;;;;;;;3.66;nan;100653.34;4856608;29;19963;-90
2023/04/03 03:29:05;;;;;;;;;;;;;;;3.66;nan;100648.16;4866754;29;19927;-90
2023/04/03 03:31:49;;;;;;;;;;;;;;;3.67;nan;100653.25;4869372;29;19926;-90
2023/04/03 03:34:33;;;;;;;;;;;;;;;3.66;nan;100653.34;4850868;29;20398;-90
2023/04/03 03:37:17;;;;;;;;;;;;;;;3.64;nan;100650.03;4851449;29;19923;-90
2023/04/03 03:40:05;;;;;;;;;;;;;;;3.63;nan;100645.78;4864681;29;19923;-91
2023/04/03 03:42:49;;;;;;;;;;;;;;;3.59;nan;100641.75;4856458;29;19927;-90
2023/04/03 03:45:33;;;;;;;;;;;;;;;3.56;nan;100641.03;4856723;29;19923;-91
2023/04/03 03:48:17;;;;;;;;;;;;;;;3.53;nan;100635.22;4863688;29;20402;-90
2023/04/03 03:51:01;;;;;;;;;;;;;;;3.49;nan;100645.00;4862452;29;19927;-90
2023/04/03 03:53:45;;;;;;;;;;;;;;;3.48;nan;100643.34;4862280;29;19968;-91
2023/04/03 03:56:29;;;;;;;;;;;;;;;3.45;nan;100633.16;4855757;29;19930;-91
2023/04/03 03:59:14;;;;;;;;;;;;;;;3.46;nan;100640.03;4872023;29;19923;-90
2023/04/03 04:01:57;;;;;;;;;;;;;;;3.46;nan;100637.44;4861691;29;20386;-91
2023/04/03 04:04:41;;;;;;;;;;;;;;;3.43;nan;100642.84;4864818;29;19968;-90
2023/04/03 04:07:27;;;;;;;;;;;;;;;3.39;nan;100644.00;4869408;29;19964;-90
2023/04/03 04:10:29;;;;;;;;;;;;;;;3.39;nan;100638.81;4861797;29;19930;-90
2023/04/03 04:13:13;;;;;;;;;;;;;;;3.36;nan;100639.03;4862703;29;19934;-89
2023/04/03 04:15:56;;;;;;;;;;;;;;;3.35;nan;100640.78;4861635;29;20025;-89
2023/04/03 04:18:40;;;;;;;;;;;;;;;3.34;nan;100640.88;4870760;29;19967;-91
2023/04/03 04:21:25;;;;;;;;;;;;;;;3.33;nan;100636.63;4862783;29;19983;-90
2023/04/03 04:24:09;;;;;;;;;;;;;;;3.34;nan;100635.69;4859386;29;20286;-89
2023/04/03 04:26:53;;;;;;;;;;;;;;;3.40;nan;100636.09;4861778;29;20003;-90
2023/04/03 04:29:37;;;;;;;;;;;;;;;3.38;nan;100637.16;4855561;29;20022;-91
2023/04/03 04:32:21;;;;;;;;;;;;;;;3.36;nan;100633.84;4859221;29;20448;-90
2023/04/03 04:35:05;;;;;;;;;;;;;;;3.35;nan;100637.38;4859231;29;20426;-90
2023/04/03 04:37:49;;;;;;;;;;;;;;;3.32;nan;100638.41;4857786;29;19926;-91
2023/04/03 04:40:33;;;;;;;;;;;;;;;3.27;nan;100628.34;4865517;29;19923;-90
2023/04/03 04:43:18;;;;;;;;;;;;;;;3.33;nan;100631.44;4858293;29;19922;-91
2023/04/03 04:46:01;;;;;;;;;;;;;;;3.31;nan;100625.53;4852160;29;20271;-89
2023/04/03 04:48:46;;;;;;;;;;;;;;;3.29;nan;100623.06;4854404;29;19923;-90
2023/04/03 04:51:30;;;;;;;;;;;;;;;3.24;nan;100625.97;4856785;29;19972;-91
2023/04/03 04:54:13;;;;;;;;;;;;;;;3.21;nan;100625.34;4860088;29;20028;-90
2023/04/03 04:56:57;;;;;;;;;;;;;;;3.18;nan;100625.56;4857730;29;20060;-90
2023/04/03 04:59:41;;;;;;;;;;;;;;;3.13;nan;100623.28;4860375;29;19990;-91
2023/04/03 05:02:25;;;;;;;;;;;;;;;3.09;nan;100617.50;4865862;29;19923;-89
2023/04/03 05:05:09;;;;;;;;;;;;;;;3.11;nan;100619.97;4863865;29;20294;-90
2023/04/03 05:07:53;;;;;;;;;;;;;;;3.08;nan;100620.19;4868167;29;20336;-90
2023/04/03 05:10:37;;;;;;;;;;;;;;;3.11;nan;100626.00;4864736;29;19968;-91
2023/04/03 05:13:22;;;;;;;;;;;;;;;3.09;nan;100621.84;4857458;29;19968;-91
2023/04/03 05:16:11;;;;;;;;;;;;;;;3.11;nan;100625.16;4860040;29;19942;-91
2023/04/03 05:18:56;;;;;;;;;;;;;;;3.13;nan;100633.66;4857618;29;19923;-89
2023/04/03 05:21:41;;;;;;;;;;;;;;;3.13;nan;100641.44;4860543;29;19964;-90
2023/04/03 05:24:26;;;;;;;;;;;;;;;3.14;nan;100636.16;4863513;29;19982;-91
2023/04/03 05:27:10;;;;;;;;;;;;;;;3.18;nan;100639.38;4870461;29;19935;-90
2023/04/03 05:29:59;;;;;;;;;;;;;;;3.22;nan;100643.41;4872112;29;19927;-90
2023/04/03 05:32:43;;;;;;;;;;;;;;;3.28;nan;100637.78;4857834;29;19923;-90
2023/04/03 05:35:31;;;;;;;;;;;;;;;3.33;nan;100636.63;4872951;29;19923;-90
2023/04/03 05:38:21;;;;;;;;;;;;;;;3.33;nan;100634.03;4873822;29;19922;-91
2023/04/03 05:41:08;;;;;;;;;;;;;;;3.35;nan;100634.78;4856370;29;19923;-90
2023/04/03 06:05:35;;;;;;;;;;;;;;;3.90;nan;100653.38;4873462;29;20009;-90
2023/04/03 06:08:19;;;;;;;;;;;;;;;3.96;nan;100655.50;4857339;29;19931;-90
2023/04/03 06:11:03;;;;;;;;;;;;;;;3.98;nan;100663.22;4857417;29;20283;-90
2023/04/03 06:13:47;;;;;;;;;;;;;;;3.99;nan;100646.69;4856707;29;19923;-91
2023/04/03 06:16:32;;;;;;;;;;;;;;;3.97;nan;100648.56;4858382;29;20010;-90
2023/04/03 06:19:16;;;;;;;;;;;;;;;3.98;nan;100651.03;4856740;29;19922;-89
2023/04/03 06:22:00;;;;;;;;;;;;;;;4.03;nan;100658.50;4858096;29;19972;-89
2023/04/03 06:24:45;;;;;;;;;;;;;;;4.09;nan;100665.84;4854545;29;20278;-90
2023/04/03 06:27:29;;;;;;;;;;;;;;;4.22;nan;100659.75;4856130;29;19934;-90
2023/04/03 06:30:13;;;;;;;;;;;;;;;4.29;nan;100663.53;4854435;29;19923;-90
2023/04/03 06:32:57;;;;;;;;;;;;;;;4.48;nan;100659.59;4869434;29;20323;-89
2023/04/03 06:35:48;;;;;;;;;;;;;;;4.66;nan;100660.81;4855470;29;20326;-90
2023/04/03 06:38:35;;;;;;;;;;;;;;;4.83;nan;100656.09;4871335;29;20385;-89
2023/04/03 06:41:19;;;;;;;;;;;;;;;4.98;nan;100654.94;4858056;29;19923;-91
2023/04/03 06:44:10;;;;;;;;;;;;;;;5.08;nan;100659.41;4859883;29;19923;-91
2023/04/03 06:46:55;;;;;;;;;;;;;;;5.18;nan;100660.38;4852415;29;19923;-91
2023/04/03 06:49:38;;;;;;;;;;;;;;;5.31;nan;100654.22;4859254;29;19943;-91
2023/04/03 06:52:23;;;;;;;;;;;;;;;5.49;nan;100665.78;4855748;29;19923;-88
2023/04/03 06:55:07;;;;;;;;;;;;;;;5.56;nan;100658.31;4856020;29;19972;-90
2023/04/03 06:57:51;;;;;;;;;;;;;;;5.58;nan;100656.41;4853391;29;19968;-89
2023/04/03 07:00:36;;;;;;;;;;;;;;;5.77;nan;100658.38;4864747;29;19990;-88
2023/04/03 07:03:21;;;;;;;;;;;;;;;5.81;nan;100657.19;4851386;29;19922;-89
2023/04/03 07:06:05;;;;;;;;;;;;;;;5.86;nan;100657.63;4855133;29;19914;-88
2023/04/03 07:08:50;;;;;;;;;;;;;;;6.04;nan;100657.13;4867312;29;20437;-89
2023/04/03 07:11:33;;;;;;;;;;;;;;;6.15;nan;100651.03;4856699;29;19967;-88
2023/04/03 07:14:17;;;;;;;;;;;;;;;6.21;nan;100647.09;4870122;29;19966;-89
2023/04/03 07:17:01;;;;;;;;;;;;;;;6.24;nan;100654.66;4866712;29;19970;-89
2023/04/03 07:19:45;;;;;;;;;;;;;;;6.36;nan;100651.06;4858354;29;19964;-88
2023/04/03 07:22:30;;;;;;;;;;;;;;;6.29;nan;100652.53;4859619;29;20023;-86
2023/04/03 07:25:17;;;;;;;;;;;;;;;6.48;nan;100649.22;4862497;29;20052;-89
2023/04/03 07:28:01;;;;;;;;;;;;;;;6.52;nan;100655.00;4864008;29;20018;-87
2023/04/03 07:30:47;;;;;;;;;;;;;;;6.67;nan;100651.09;4852959;29;20030;-85
2023/04/03 07:33:31;;;;;;;;;;;;;;;6.69;nan;100657.03;4875948;29;19922;-88
2023/04/03 07:36:17;;;;;;;;;;;;;;;6.67;nan;100652.91;4860626;29;20004;-88
2023/04/03 07:39:01;;;;;;;;;;;;;;;6.78;nan;100655.44;4872794;29;19923;-89
2023/04/03 07:41:45;;;;;;;;;;;;;;;6.83;nan;100655.03;4859655;29;19984;-89
2023/04/03 07:44:30;;;;;;;;;;;;;;;7.01;nan;100655.25;4856497;29;19923;-90
2023/04/03 07:47:16;;;;;;;;;;;;;;;6.91;nan;100650.00;4861488;29;19927;-91
2023/04/03 07:50:00;;;;;;;;;;;;;;;6.87;nan;100664.25;4856847;29;20274;-88
2023/04/03 07:52:45;;;;;;;;;;;;;;;6.91;nan;100664.81;4863562;29;19941;-87
2023/04/03 07:55:29;;;;;;;;;;;;;;;7.22;nan;100667.44;4870430;29;19930;-87
2023/04/03 07:58:15;;;;;;;;;;;;;;;7.14;nan;100655.03;4866462;29;19987;-87
2023/04/03 08:04:26;;;;;;;;;;;;;;;7.19;nan;100658.06;4871589;29;19931;-89
2023/04/03 08:07:10;;;;;;;;;;;;;;;7.26;nan;100658.38;4861978;29;19927;-91
2023/04/03 08:09:54;;;;;;;;;;;;;;;7.09;nan;100657.22;4862988;29;19923;-89
2023/04/03 08:12:41;;;;;;;;;;;;;;;7.21;nan;100655.34;4860388;29;19940;-89
2023/04/03 08:19:20;;;;;;;;;;;;;;;;;;;;;
2023/04/03 08:22:06;;;;;;;;;;;;;;;6.65;nan;100658.22;4895744;29;19984;-88
2023/04/03 08:24:50;;;;;;;;;;;;;;;6.87;nan;100648.59;4880777;29;19968;-90
2023/04/03 08:27:58;;;;;;;;;;;;;;;6.87;nan;100653.81;4881994;29;19990;-89
2023/04/03 08:30:43;;;;;;;;;;;;;;;6.88;nan;100645.03;4883000;29;19923;-90
2023/04/03 08:33:41;;;;;;;;;;;;;;;;;;;;;
2023/04/03 08:36:33;;;;;;;;;;;;;;;6.86;nan;100646.94;4895924;29;19923;-91
2023/04/03 08:39:17;;;;;;;;;;;;;;;7.18;nan;100642.53;4881603;29;19923;-90
2023/04/03 08:45:56;;;;;;;;;;;;;;;;;;;;;
2023/04/03 08:48:54;;;;;;;;;;;;;;;7.52;nan;100645.66;4896343;29;19927;-89
2023/04/03 08:51:42;;;;;;;;;;;;;;;7.57;nan;100646.06;4882304;29;19926;-89
2023/04/03 08:54:36;;;;;;;;;;;;;;;7.41;nan;100650.97;4881896;29;20059;-89
2023/04/03 08:57:27;;;;;;;;;;;;;;;7.48;nan;100644.28;4883309;29;19935;-89
2023/04/03 09:00:35;;;;;;;;;;;;;;;;;;;;;
2023/04/03 09:06:39;;;;;;;;;;;;;;;8.07;nan;100646.09;4896775;29;19922;-90
2023/04/03 09:09:40;;;;;;;;;;;;;;;8.43;nan;100643.72;4882446;29;20024;-89
2023/04/03 09:12:27;;;;;;;;;;;;;;;8.56;nan;100646.91;4882398;29;20000;-90
2023/04/03 09:15:21;;;;;;;;;;;;;;;8.75;nan;100649.59;4893532;29;19923;-90
2023/04/03 09:18:28;;;;;;;;;;;;;;;8.84;nan;100640.88;4881040;29;19927;-90
2023/04/03 09:21:33;;;;;;;;;;;;;;;8.83;nan;100641.84;4882630;29;19922;-90
2023/04/03 09:24:18;;;;;;;;;;;;;;;9.05;nan;100637.25;4893351;29;19923;-89
2023/04/03 09:27:09;;;;;;;;;;;;;;;8.82;nan;100641.03;4893644;29;19923;-89
2023/04/03 09:30:00;;;;;;;;;;;;;;;8.79;nan;100646.56;4882782;29;19922;-89
2023/04/03 09:32:55;;;;;;;;;;;;;;;8.63;nan;100631.44;4896727;29;19961;-89
2023/04/03 09:35:47;;;;;;;;;;;;;;;8.82;nan;100640.19;4873575;29;19992;-89
2023/04/03 09:38:33;;;;;;;;;;;;;;;8.86;nan;100637.16;4882477;29;19961;-89
2023/04/03 09:41:22;;;;;;;;;;;;;;;8.88;nan;100629.16;4883941;29;19962;-89
2023/04/03 09:44:28;;;;;;;;;;;;;;;8.71;nan;100634.19;4885120;29;19922;-90
2023/04/03 09:47:23;;;;;;;;;;;;;;;8.48;nan;100625.00;4884739;29;19935;-91
2023/04/03 09:50:14;;;;;;;;;;;;;;;8.86;nan;100615.41;4882254;29;19983;-89
2023/04/03 09:53:04;;;;;;;;;;;;;;;9.03;nan;100626.06;4883401;29;19939;-89
2023/04/03 09:55:48;;;;;;;;;;;;;;;8.86;nan;100620.63;4890243;29;19927;-90
2023/04/03 10:05:34;;;;;;;;;;;;;;;8.91;nan;100631.50;4895156;29;19976;-89
2023/04/03 10:08:20;;;;;;;;;;;;;;;8.76;nan;100625.06;4875877;29;20010;-89
2023/04/03 10:11:16;;;;;;;;;;;;;;;8.55;nan;100620.88;4893715;29;19923;-91
2023/04/03 10:14:05;;;;;;;;;;;;;;;8.70;nan;100621.22;4891323;29;19964;-92
2023/04/03 10:17:09;;;;;;;;;;;;;;;8.64;nan;100611.34;4889856;29;20027;-89
2023/04/03 10:20:16;;;;;;;;;;;;;;;8.96;nan;100616.16;4876823;29;19975;-92
2023/04/03 10:23:34;;;;;;;;;;;;;;;9.02;nan;100609.53;4879302;29;20271;-91
2023/04/03 10:26:31;;;;;;;;;;;;;;;9.02;nan;100609.53;4885187;29;19931;-91
2023/04/03 10:29:24;;;;;;;;;;;;;;;9.02;nan;100613.94;4878349;29;20068;-91
2023/04/03 10:32:38;;;;;;;;;;;;;;;9.02;nan;100608.69;4877179;29;19927;-90
2023/04/03 10:35:32;;;;;;;;;;;;;;;9.20;nan;100606.94;4885128;29;19940;-91
2023/04/03 10:38:28;;;;;;;;;;;;;;;9.06;nan;100610.88;4878053;29;19938;-91
2023/04/03 10:41:17;;;;;;;;;;;;;;;9.00;nan;100612.28;4892349;29;19944;-92
2023/04/03 10:51:26;;;;;;;;;;;;;;;8.91;nan;100591.38;4898218;29;19988;-90
2023/04/03 10:54:19;;;;;;;;;;;;;;;8.99;nan;100594.13;4884771;29;19995;-91
2023/04/03 10:57:05;;;;;;;;;;;;;;;9.02;nan;100601.66;4898657;29;19926;-92
2023/04/03 11:07:36;;;;;;;;;;;;;;;9.33;nan;100593.47;4855574;29;19923;-92
2023/04/03 11:14:07;;;;;;;;;;;;;;;9.76;nan;100574.56;4897180;29;19918;-91
2023/04/03 11:17:04;;;;;;;;;;;;;;;9.84;nan;100572.84;4893741;29;19923;-91
2023/04/03 11:20:09;;;;;;;;;;;;;;;9.82;nan;100574.75;4878706;29;19941;-91
2023/04/03 11:23:01;;;;;;;;;;;;;;;9.56;nan;100572.91;4878656;29;19923;-91
2023/04/03 11:33:21;;;;;;;;;;;;;;;9.78;nan;100555.06;4878248;29;19922;-91
2023/04/03 11:36:18;;;;;;;;;;;;;;;9.88;nan;100554.97;4879193;29;19983;-91
2023/04/03 11:42:42;;;;;;;;;;;;;;;10.14;nan;100562.88;4879184;29;19950;-91
2023/04/03 11:46:01;;;;;;;;;;;;;;;10.10;nan;100551.06;4878676;29;20340;-92
2023/04/03 11:48:50;;;;;;;;;;;;;;;10.09;nan;100554.66;4876408;29;19927;-89
2023/04/03 11:51:40;;;;;;;;;;;;;;;10.09;nan;100552.03;4878041;29;20434;-91
2023/04/03 11:54:35;;;;;;;;;;;;;;;9.83;nan;100539.72;4869034;29;19927;-91
2023/04/03 11:57:22;;;;;;;;;;;;;;;10.04;nan;100543.81;4835612;29;20520;-91
2023/04/03 12:00:25;;;;;;;;;;;;;;;10.04;nan;100551.69;4830530;29;19927;-91
2023/04/03 12:06:18;;;;;;;;;;;;;;;10.11;nan;100536.94;4854806;29;19932;-91
2023/04/03 12:09:21;;;;;;;;;;;;;;;10.08;nan;100533.81;4845400;29;19936;-89
2023/04/03 12:12:24;;;;;;;;;;;;;;;10.08;nan;100532.03;4845689;29;19939;-91
2023/04/03 12:15:17;;;;;;;;;;;;;;;9.94;nan;100536.03;4847370;29;19923;-90
2023/04/03 12:18:21;;;;;;;;;;;;;;;10.15;nan;100526.97;4844495;29;19942;-91
2023/04/03 12:21:05;;;;;;;;;;;;;;;10.22;nan;100528.00;4848546;29;19927;-90
2023/04/03 12:24:13;;;;;;;;;;;;;;;10.13;nan;100521.06;4851155;29;20360;-91
2023/04/03 12:26:56;;;;;;;;;;;;;;;10.41;nan;100513.84;4861431;29;19923;-91
2023/04/03 12:29:47;;;;;;;;;;;;;;;10.46;nan;100517.81;4834752;29;20027;-91
2023/04/03 12:32:45;;;;;;;;;;;;;;;10.51;nan;100515.53;4850890;29;19969;-91
2023/04/03 12:35:43;;;;;;;;;;;;;;;10.57;nan;100515.75;4858392;29;19922;-90
2023/04/03 12:38:33;;;;;;;;;;;;;;;10.43;nan;100514.53;4848602;29;20295;-91
2023/04/03 12:41:17;;;;;;;;;;;;;;;10.63;nan;100510.81;4851678;29;19970;-91
2023/04/03 12:44:17;;;;;;;;;;;;;;;10.61;nan;100512.78;4858405;29;19924;-92
2023/04/03 12:47:16;;;;;;;;;;;;;;;10.50;nan;100508.66;4855652;29;20383;-90
2023/04/03 12:50:15;;;;;;;;;;;;;;;10.62;nan;100507.41;4856206;29;19956;-91
2023/04/03 12:53:04;;;;;;;;;;;;;;;10.73;nan;100494.94;4846759;29;19959;-90
2023/04/03 13:02:58;;;;;;;;;;;;;;;10.84;nan;100478.91;4846468;29;19923;-90
2023/04/03 13:05:44;;;;;;;;;;;;;;;10.81;nan;100468.72;4858062;29;20310;-90
2023/04/03 13:08:29;;;;;;;;;;;;;;;10.67;nan;100478.84;4841077;29;19972;-88
2023/04/03 13:11:13;;;;;;;;;;;;;;;10.94;nan;100463.00;4859602;29;20423;-89
2023/04/03 13:14:03;;;;;;;;;;;;;;;10.98;nan;100469.56;4839931;29;19923;-91
2023/04/03 13:16:55;;;;;;;;;;;;;;;10.99;nan;100476.47;4847413;29;20028;-89
2023/04/03 13:19:41;;;;;;;;;;;;;;;11.10;nan;100462.19;4848596;29;20031;-90
2023/04/03 13:22:25;;;;;;;;;;;;;;;11.13;nan;100467.09;4848106;29;19943;-91
2023/04/03 13:25:12;;;;;;;;;;;;;;;11.10;nan;100460.41;4848986;29;19927;-91
2023/04/03 13:27:57;;;;;;;;;;;;;;;11.11;nan;100463.81;4852079;29;19928;-91
2023/04/03 13:30:54;;;;;;;;;;;;;;;11.09;nan;100455.28;4851682;29;19968;-92
2023/04/03 13:33:39;;;;;;;;;;;;;;;11.26;nan;100454.31;4837965;29;19927;-84
2023/04/03 13:36:35;;;;;;;;;;;;;;;11.13;nan;100456.59;4840780;29;19967;-83
2023/04/03 13:39:22;;;;;;;;;;;;;;;11.18;nan;100449.03;4840869;29;19931;-84
2023/04/03 13:42:21;;;;;;;;;;;;;;;11.24;nan;100453.66;4839698;29;20291;-85
2023/04/03 13:45:09;;;;;;;;;;;;;;;11.41;nan;100448.41;4833138;29;19928;-85
2023/04/03 13:48:07;;;;;;;;;;;;;;;11.20;nan;100438.38;4839679;29;20390;-88
2023/04/03 13:50:52;;;;;;;;;;;;;;;11.43;nan;100434.09;4838130;29;20291;-88
2023/04/03 13:53:43;;;;;;;;;;;;;;;11.46;nan;100438.22;4841267;29;20015;-89
2023/04/03 13:56:30;;;;;;;;;;;;;;;11.66;nan;100430.78;4868095;29;19964;-88
2023/04/03 13:59:16;;;;;;;;;;;;;;;11.48;nan;100424.88;4867880;29;19923;-87
2023/04/03 14:02:03;;;;;;;;;;;;;;;11.64;nan;100421.44;4853505;29;20306;-87
2023/04/03 14:04:50;;;;;;;;;;;;;;;11.81;nan;100425.66;4866510;29;21430;-88
2023/04/03 14:07:35;;;;;;;;;;;;;;;11.84;nan;100414.81;4852853;29;20390;-87
2023/04/03 14:10:22;;;;;;;;;;;;;;;12.01;nan;100422.69;4851584;29;19926;-87
2023/04/03 14:13:06;;;;;;;;;;;;;;;11.84;nan;100417.44;4866121;29;19949;-88
2023/04/03 14:15:51;;;;;;;;;;;;;;;11.79;nan;100414.50;4865520;29;20019;-89
2023/04/03 14:18:41;;;;;;;;;;;;;;;11.77;nan;100411.19;4849247;29;19918;-89
2023/04/03 14:21:28;;;;;;;;;;;;;;;11.92;nan;100405.22;4852764;29;20495;-89
2023/04/03 14:24:12;;;;;;;;;;;;;;;11.95;nan;100404.88;4865292;29;19927;-88
2023/04/03 14:27:00;;;;;;;;;;;;;;;12.07;nan;100416.72;4865045;29;20377;-90
2023/04/03 14:29:44;;;;;;;;;;;;;;;12.09;nan;100404.22;4866284;29;19927;-89
2023/04/03 14:32:45;;;;;;;;;;;;;;;12.17;nan;100394.63;4865015;29;19922;-89
2023/04/03 14:35:29;;;;;;;;;;;;;;;12.22;nan;100393.13;4855850;29;19931;-89
2023/04/03 14:38:25;;;;;;;;;;;;;;;12.17;nan;100390.19;4853055;29;19923;-89
2023/04/03 14:41:11;;;;;;;;;;;;;;;12.36;nan;100396.84;4846794;29;20298;-90
2023/04/03 14:43:56;;;;;;;;;;;;;;;12.30;nan;100392.28;4847574;29;19979;-89
2023/04/03 14:46:42;;;;;;;;;;;;;;;12.28;nan;100394.25;4846496;29;20011;-89
2023/04/03 14:49:28;;;;;;;;;;;;;;;12.30;nan;100379.13;4846279;29;19981;-90
2023/04/03 14:52:21;;;;;;;;;;;;;;;12.34;nan;100380.41;4845744;29;19923;-91
2023/04/03 14:55:06;;;;;;;;;;;;;;;12.41;nan;100380.53;4846162;29;19928;-88
2023/04/03 14:57:50;;;;;;;;;;;;;;;12.12;nan;100380.19;4846633;29;19923;-92
2023/04/03 15:00:34;;;;;;;;;;;;;;;12.17;nan;100381.47;4847788;29;20344;-90
2023/04/03 15:03:20;;;;;;;;;;;;;;;12.34;nan;100380.41;4846725;29;20299;-90
2023/04/03 15:06:06;;;;;;;;;;;;;;;12.33;nan;100370.88;4847968;29;19923;-90
2023/04/03 15:08:51;;;;;;;;;;;;;;;12.37;nan;100371.34;4846687;29;20406;-89
2023/04/03 15:11:35;;;;;;;;;;;;;;;12.30;nan;100368.59;4848429;29;19959;-90
2023/04/03 15:14:19;;;;;;;;;;;;;;;12.46;nan;100361.59;4846610;29;19930;-89
2023/04/03 15:17:04;;;;;;;;;;;;;;;12.55;nan;100365.78;4846945;29;20329;-90
2023/04/03 15:19:49;;;;;;;;;;;;;;;12.53;nan;100357.25;4848702;29;20052;-89
2023/04/03 15:22:33;;;;;;;;;;;;;;;12.64;nan;100356.84;4860486;29;19919;-90
2023/04/03 15:25:25;;;;;;;;;;;;;;;12.35;nan;100358.34;4872606;29;19910;-90
2023/04/03 16:04:20;;;;;;;;;;;;;;;12.84;nan;100330.03;4949708;29;20007;-90
2023/04/03 16:07:21;;;;;;;;;;;;;;;;;;;;;
2023/04/03 16:10:17;;;;;;;;;;;;;;;12.94;nan;100330.59;4949135;29;20001;-90
2023/04/03 16:16:33;;;;;;;;;;;;;;;13.00;nan;100324.63;4932669;29;19922;-89
2023/04/03 16:19:20;;;;;;;;;;;;;;;13.05;nan;100321.44;4960127;29;20288;-91
2023/04/03 16:22:04;;;;;;;;;;;;;;;13.21;nan;100317.84;4940487;29;19994;-91
2023/04/03 16:24:49;;;;;;;;;;;;;;;13.22;nan;100324.75;4920689;29;19926;-90
2023/04/03 16:27:33;;;;;;;;;;;;;;;13.38;nan;100320.31;4918018;29;19926;-90
2023/04/03 16:30:17;;;;;;;;;;;;;;;13.43;nan;100325.91;4954259;29;19921;-90
2023/04/03 16:33:01;;;;;;;;;;;;;;;13.36;nan;100324.94;4947873;29;19922;-90
2023/04/03 16:35:45;;;;;;;;;;;;;;;13.33;nan;100325.28;4938958;29;19937;-89
2023/04/03 16:38:29;;;;;;;;;;;;;;;13.51;nan;100323.16;4940071;29;19922;-91
2023/04/03 16:41:14;;;;;;;;;;;;;;;13.42;nan;100330.31;4927387;29;19913;-90
2023/04/03 16:44:02;;;;;;;;;;;;;;;13.68;nan;100328.25;4940269;28;20050;-89
2023/04/03 16:46:49;;;;;;;;;;;;;;;13.64;nan;100325.16;4942541;29;19921;-89
2023/04/03 16:49:41;;;;;;;;;;;;;;;13.74;nan;100322.22;4947531;29;19926;-89
2023/04/03 16:52:26;;;;;;;;;;;;;;;13.82;nan;100322.16;4937067;29;19922;-91
2023/04/03 16:55:12;;;;;;;;;;;;;;;13.97;nan;100322.13;4941595;29;19921;-91
2023/04/03 16:57:56;;;;;;;;;;;;;;;14.47;nan;100323.25;4927750;29;19921;-90
2023/04/03 17:07:47;;;;;;;;;;;;;;;14.43;nan;100323.63;4944261;29;19925;-90
2023/04/03 17:14:16;;;;;;;;;;;;;;;14.42;nan;100318.50;4945264;29;19922;-89
2023/04/03 17:17:10;;;;;;;;;;;;;;;14.26;nan;100319.59;4920529;29;19923;-89
2023/04/03 17:24:02;;;;;;;;;;;;;;;13.94;nan;100321.66;4929598;29;19938;-89